Terminal Aerodrome Forecast
Issued by NWS Mt. Holly, NJ

Home | Current Version | Previous Version | Text Only | Print | Product List | Glossary On
Versions: 1 2 3 4 5 6 7 8 9 10 11 12
000
FTUS41 KPHI 292300
TAFILG
TAF
KILG 292335Z 3000/3024 00000KT P6SM SCT250
      TEMPO 3010/3012 5SM BR
     FM301300 16005KT P6SM FEW030
     FM301800 17009KT P6SM SCT050
      TEMPO 3018/3019 BKN050=

USA.gov is the U.S. government's official web portal to all federal, state and local government web resources and services.